Terminal Aerodrome Forecast
Issued by NWS

Home | Current Version | Previous Version | Text Only | Print | Product List | Glossary Off
Versions: 1 2 3 4 5 6 7 8 9 10 11 12 13 14 15 16

000
FTUS43 KICT 222337
TAFCNU
TAF
KCNU 222337Z 2300/2324 18016KT P6SM SCT009 OVC015
     FM230300 18011KT 5SM BR VCSH SCT006 OVC009
     FM231600 24012KT 6SM BR OVC012
     FM232200 34020G28KT P6SM OVC020=

USA.gov is the U.S. government's official web portal to all federal, state and local government web resources and services.